Time;durP1;ratioP1;P1;durP2;ratioP2;P2;SDS_P1;SDS_P2;PMS_P1;PMS_P2;Temp;Humidity;BMP_temperature;BMP_pressure;BME280_temperature;BME280_humidity;BME280_pressure;Samples;Min_cycle;Max_cycle;Signal;HPM_P1;HPM_P2
2023/07/13 00:01:28;;;;;;;0.60;0.60;;;;;;;24.85;44.47;100418.97;4552922;28;20059;-60
2023/07/13 00:03:40;;;;;;;0.52;0.45;;;;;;;24.87;44.76;100433.00;4554070;27;20111;-60
2023/07/13 00:05:59;;;;;;;0.50;0.50;;;;;;;24.85;44.81;100433.41;4552127;28;20817;-60
2023/07/13 00:08:11;;;;;;;0.50;0.50;;;;;;;24.81;44.55;100429.69;4554396;28;20037;-60
2023/07/13 00:10:22;;;;;;;0.60;0.60;;;;;;;24.83;44.23;100435.84;4553673;28;20238;-60
2023/07/13 00:12:35;;;;;;;0.73;0.50;;;;;;;24.81;44.43;100431.72;4554415;28;20047;-60
2023/07/13 00:14:45;;;;;;;0.70;0.70;;;;;;;24.85;44.53;100433.41;4553992;28;20040;-60
2023/07/13 00:16:56;;;;;;;0.60;0.60;;;;;;;24.84;44.63;100437.53;4554125;28;20114;-60
2023/07/13 00:19:06;;;;;;;0.50;0.50;;;;;;;24.85;44.62;100444.97;4549909;28;20083;-60
2023/07/13 00:21:17;;;;;;;0.50;0.50;;;;;;;24.82;44.72;100436.25;4554201;28;20511;-59
2023/07/13 00:23:27;;;;;;;1.20;0.70;;;;;;;24.86;44.60;100445.81;4552695;28;20024;-60
2023/07/13 00:25:37;;;;;;;0.82;0.50;;;;;;;24.84;44.25;100443.31;4553783;28;20045;-60
2023/07/13 00:27:48;;;;;;;0.68;0.57;;;;;;;24.85;43.93;100444.97;4554726;28;20043;-60
2023/07/13 00:29:59;;;;;;;0.70;0.60;;;;;;;24.84;44.23;100443.31;4552065;28;20048;-60
2023/07/13 00:32:09;;;;;;;0.77;0.65;;;;;;;24.84;44.07;100449.09;4553862;28;20147;-59
2023/07/13 00:34:20;;;;;;;0.55;0.55;;;;;;;24.83;44.18;100444.53;4569932;27;20079;-59
2023/07/13 00:36:31;;;;;;;0.75;0.50;;;;;;;24.85;44.16;100439.19;4553572;28;20522;-60
2023/07/13 00:38:42;;;;;;;0.65;0.60;;;;;;;24.85;44.51;100439.19;4551988;28;20114;-60
2023/07/13 00:40:53;;;;;;;0.50;0.50;;;;;;;24.83;44.56;100438.75;4553532;28;20040;-60
2023/07/13 00:43:11;;;;;;;0.63;0.50;;;;;;;24.79;44.76;100435.00;4553956;28;20483;-59
2023/07/13 00:45:21;;;;;;;0.65;0.50;;;;;;;24.85;44.89;100444.13;4552869;28;20584;-60
2023/07/13 00:47:32;;;;;;;0.50;0.50;;;;;;;24.83;44.94;100441.63;4552935;28;20041;-61
2023/07/13 00:49:42;;;;;;;1.50;0.60;;;;;;;24.82;44.73;100439.16;4553390;28;20039;-60
2023/07/13 00:51:59;;;;;;;0.65;0.50;;;;;;;24.84;44.94;100443.31;4552514;28;20056;-59
2023/07/13 00:54:15;;;;;;;0.95;0.50;;;;;;;24.84;44.87;100443.31;4552537;28;20036;-60
2023/07/13 00:56:43;;;;;;;0.60;0.60;;;;;;;24.83;44.84;100447.41;4552365;28;20039;-59
2023/07/13 00:58:55;;;;;;;0.60;0.60;;;;;;;24.84;45.00;100443.31;4552429;28;20249;-59
2023/07/13 01:01:06;;;;;;;0.60;0.60;;;;;;;24.84;44.70;100445.34;4554750;28;20076;-59
2023/07/13 01:03:17;;;;;;;0.77;0.63;;;;;;;24.84;44.72;100449.09;4553546;28;20111;-59
2023/07/13 01:05:28;;;;;;;0.60;0.50;;;;;;;24.79;44.49;100439.94;4568687;27;20575;-59
2023/07/13 01:07:39;;;;;;;0.85;0.60;;;;;;;24.83;44.39;100453.19;4551981;28;20032;-60
2023/07/13 01:09:50;;;;;;;1.13;0.70;;;;;;;24.78;44.19;100430.44;4543450;28;20033;-60
2023/07/13 01:12:03;;;;;;;0.88;0.75;;;;;;;24.81;44.08;100444.13;4551659;28;21540;-60
2023/07/13 01:14:16;;;;;;;1.00;0.75;;;;;;;24.82;43.95;100445.75;4552535;28;20035;-59
2023/07/13 01:16:31;;;;;;;0.82;0.65;;;;;;;24.76;44.12;100434.97;4536119;28;20098;-60
2023/07/13 01:18:41;;;;;;;0.93;0.60;;;;;;;24.81;44.75;100444.13;4545223;28;20037;-60
2023/07/13 01:20:54;;;;;;;0.82;0.50;;;;;;;24.80;44.55;100444.53;4555398;28;20025;-59
2023/07/13 01:23:06;;;;;;;0.60;0.57;;;;;;;24.82;44.54;100448.66;4555497;28;20047;-59
2023/07/13 01:25:18;;;;;;;0.60;0.60;;;;;;;24.82;44.54;100450.69;4556493;28;20036;-59
2023/07/13 01:27:29;;;;;;;1.65;0.80;;;;;;;24.82;44.61;100450.69;4555048;28;20034;-60
2023/07/13 01:29:43;;;;;;;0.80;0.73;;;;;;;24.83;44.16;100450.28;4557039;28;20047;-59
2023/07/13 01:31:54;;;;;;;1.05;0.60;;;;;;;24.80;44.19;100448.22;4555095;28;20036;-60
2023/07/13 01:34:04;;;;;;;1.00;0.70;;;;;;;24.78;43.58;100439.13;4555957;28;20033;-59
2023/07/13 01:36:15;;;;;;;0.70;0.70;;;;;;;24.67;43.43;100426.66;4556290;28;20075;-60
2023/07/13 01:38:26;;;;;;;0.70;0.70;;;;;;;24.81;43.38;100444.13;4555534;28;20268;-60
2023/07/13 01:40:38;;;;;;;0.98;0.70;;;;;;;24.75;43.17;100434.13;4556575;28;20040;-60
2023/07/13 01:42:48;;;;;;;0.82;0.60;;;;;;;24.81;43.66;100449.88;4571080;27;20036;-60
2023/07/13 01:44:59;;;;;;;1.23;0.60;;;;;;;24.79;43.51;100443.69;4557509;28;20032;-59
2023/07/13 01:47:10;;;;;;;0.77;0.60;;;;;;;24.79;43.21;100452.34;4556904;28;20044;-60
2023/07/13 01:49:21;;;;;;;0.70;0.70;;;;;;;24.79;43.81;100448.63;4558572;28;20227;-60
2023/07/13 01:51:31;;;;;;;0.60;0.60;;;;;;;24.62;42.93;100424.13;4556550;28;20166;-60
2023/07/13 01:53:41;;;;;;;0.70;0.60;;;;;;;24.81;43.11;100455.66;4555825;28;20036;-60
2023/07/13 01:55:52;;;;;;;1.30;0.60;;;;;;;24.78;43.02;100456.44;4556297;27;20090;-60
2023/07/13 01:58:03;;;;;;;0.50;0.50;;;;;;;24.65;42.85;100437.75;4556217;28;20028;-59
2023/07/13 02:00:15;;;;;;;0.77;0.60;;;;;;;24.79;42.58;100458.13;4561288;27;20110;-59
2023/07/13 02:02:31;;;;;;;0.50;0.50;;;;;;;24.77;42.84;100463.44;4555823;28;20279;-60
2023/07/13 02:04:42;;;;;;;0.70;0.60;;;;;;;24.76;42.94;100460.97;4555373;28;20538;-60
2023/07/13 02:06:52;;;;;;;1.13;0.60;;;;;;;24.78;42.41;100459.31;4556713;28;20377;-60
2023/07/13 02:09:02;;;;;;;0.60;0.60;;;;;;;24.77;42.52;100460.56;4554825;28;20027;-60
2023/07/13 02:11:13;;;;;;;1.17;0.70;;;;;;;24.76;42.24;100456.03;4536021;28;20083;-60
2023/07/13 02:13:39;;;;;;;0.60;0.60;;;;;;;24.78;41.89;100458.50;4554287;28;20029;-60
2023/07/13 02:15:51;;;;;;;0.82;0.70;;;;;;;24.78;42.07;100461.41;4557146;28;20037;-60
2023/07/13 02:18:03;;;;;;;1.35;0.65;;;;;;;24.75;42.24;100451.47;4555343;28;20043;-61
2023/07/13 02:20:13;;;;;;;0.60;0.50;;;;;;;24.75;42.18;100453.53;4555541;28;20036;-60
2023/07/13 02:22:24;;;;;;;1.23;0.63;;;;;;;24.74;42.20;100461.38;4556176;28;20032;-60
2023/07/13 02:24:34;;;;;;;0.98;0.80;;;;;;;24.73;42.11;100459.72;4554884;28;20438;-59
2023/07/13 02:26:45;;;;;;;0.60;0.60;;;;;;;24.77;42.25;100463.44;4554436;28;20044;-60
2023/07/13 02:28:55;;;;;;;0.50;0.50;;;;;;;24.76;42.42;100464.69;4554438;28;20051;-59
2023/07/13 02:31:11;;;;;;;0.88;0.65;;;;;;;24.76;42.29;100464.69;4559048;27;20051;-60
2023/07/13 02:33:22;;;;;;;0.60;0.47;;;;;;;24.70;42.71;100457.63;4555442;27;20040;-60
2023/07/13 02:35:32;;;;;;;0.95;0.55;;;;;;;24.72;42.38;100458.03;4554635;28;20033;-59
2023/07/13 02:37:43;;;;;;;0.60;0.60;;;;;;;24.73;42.65;100456.81;4554892;28;20174;-60
2023/07/13 02:39:54;;;;;;;0.60;0.50;;;;;;;24.75;42.83;100448.56;4555676;28;20033;-60
2023/07/13 02:42:05;;;;;;;0.63;0.60;;;;;;;24.69;42.74;100435.75;4553236;28;20040;-60
2023/07/13 02:44:15;;;;;;;0.57;0.50;;;;;;;24.68;42.46;100442.75;4537215;28;20111;-59
2023/07/13 02:46:26;;;;;;;0.50;0.50;;;;;;;24.75;42.61;100456.44;4553737;28;20105;-60
2023/07/13 02:48:38;;;;;;;0.68;0.57;;;;;;;24.76;42.41;100458.06;4553742;28;20214;-61
2023/07/13 02:50:49;;;;;;;0.88;0.63;;;;;;;24.73;42.47;100453.94;4552955;28;20043;-59
2023/07/13 02:52:59;;;;;;;1.00;0.50;;;;;;;24.72;42.66;100460.91;4561256;27;20519;-60
2023/07/13 02:55:10;;;;;;;0.68;0.57;;;;;;;24.74;42.27;100463.41;4545188;28;20031;-60
2023/07/13 02:57:20;;;;;;;0.73;0.60;;;;;;;24.71;42.43;100462.16;4553596;28;20537;-59
2023/07/13 02:59:31;;;;;;;0.73;0.60;;;;;;;24.68;42.29;100448.53;4554400;28;20879;-60
2023/07/13 03:01:41;;;;;;;1.23;0.80;;;;;;;24.70;41.92;100463.41;4553228;28;20032;-59
2023/07/13 03:03:53;;;;;;;0.50;0.50;;;;;;;24.72;41.90;100454.34;4553626;28;20068;-60
2023/07/13 03:06:07;;;;;;;0.80;0.55;;;;;;;24.74;41.68;100460.53;4536991;28;20037;-60
2023/07/13 03:08:26;;;;;;;0.90;0.70;;;;;;;24.70;41.79;100460.50;4571245;27;20044;-60
2023/07/13 03:10:39;;;;;;;0.50;0.50;;;;;;;24.73;41.95;100465.50;4552139;28;20036;-60
2023/07/13 03:12:51;;;;;;;0.50;0.50;;;;;;;24.71;41.97;100462.16;4553550;28;20037;-59
2023/07/13 03:15:07;;;;;;;0.80;0.60;;;;;;;24.70;42.07;100466.28;4553682;28;20611;-60
2023/07/13 03:17:20;;;;;;;0.60;0.50;;;;;;;24.65;42.13;100452.19;4554391;28;20040;-60
2023/07/13 03:19:31;;;;;;;1.20;0.73;;;;;;;24.69;42.36;100464.59;4554586;28;20551;-60
2023/07/13 03:21:41;;;;;;;0.90;0.50;;;;;;;24.71;41.97;100470.81;4552829;28;20405;-59
2023/07/13 03:23:53;;;;;;;0.77;0.50;;;;;;;24.72;41.92;100468.78;4553517;28;20036;-60
2023/07/13 03:26:06;;;;;;;0.45;0.45;;;;;;;24.71;41.59;100467.09;4552887;28;20049;-61
2023/07/13 03:28:40;;;;;;;1.15;0.55;;;;;;;24.70;41.60;100463.41;4559551;27;20123;-60
2023/07/13 03:31:09;;;;;;;0.60;0.60;;;;;;;24.67;41.93;100461.28;4551723;28;20480;-61
2023/07/13 03:33:20;;;;;;;0.75;0.52;;;;;;;24.67;41.42;100466.25;4554975;28;20860;-61
2023/07/13 03:35:32;;;;;;;0.55;0.50;;;;;;;24.69;41.14;100481.94;4552412;28;20124;-61
2023/07/13 03:37:42;;;;;;;0.57;0.50;;;;;;;24.70;41.08;100477.84;4552644;28;20036;-62
2023/07/13 03:39:56;;;;;;;0.75;0.50;;;;;;;24.69;40.77;100490.59;4552913;28;20036;-61
2023/07/13 03:42:07;;;;;;;0.40;0.40;;;;;;;24.65;41.13;100481.03;4553972;28;20071;-61
2023/07/13 03:44:17;;;;;;;0.70;0.47;;;;;;;24.70;40.86;100491.44;4555024;28;20564;-61
2023/07/13 03:46:28;;;;;;;1.30;0.50;;;;;;;24.69;41.54;100486.84;4554457;28;20074;-61
2023/07/13 03:48:43;;;;;;;0.75;0.50;;;;;;;24.69;41.33;100493.47;4542711;28;20099;-61
2023/07/13 03:50:53;;;;;;;1.13;0.50;;;;;;;24.67;41.03;100495.91;4551505;28;20128;-61
2023/07/13 03:53:04;;;;;;;1.02;0.63;;;;;;;24.69;41.10;100495.53;4554320;28;20036;-61
2023/07/13 03:55:15;;;;;;;0.40;0.40;;;;;;;24.66;40.76;100494.28;4552673;28;20035;-61
2023/07/13 03:57:26;;;;;;;0.70;0.50;;;;;;;24.68;41.13;100502.53;4552786;28;20052;-61
2023/07/13 03:59:37;;;;;;;0.50;0.50;;;;;;;24.66;41.58;100491.38;4553762;28;20155;-61
2023/07/13 04:01:47;;;;;;;0.95;0.60;;;;;;;24.68;40.75;100505.41;4554755;28;20040;-60
2023/07/13 04:03:58;;;;;;;0.65;0.50;;;;;;;24.60;40.95;100489.22;4552146;28;20082;-61
2023/07/13 04:06:15;;;;;;;1.05;0.50;;;;;;;24.66;40.65;100500.03;4542311;28;20036;-61
2023/07/13 04:08:35;;;;;;;;;;;;;;;24.68;40.65;100499.66;4553858;28;20037;-62
2023/07/13 04:10:46;;;;;;;0.52;0.50;;;;;;;24.67;40.79;100512.44;4552881;28;20299;-62
2023/07/13 04:12:56;;;;;;;0.40;0.40;;;;;;;24.66;40.83;100517.38;4549390;28;20029;-60
2023/07/13 04:15:07;;;;;;;1.08;0.52;;;;;;;24.67;40.82;100515.31;4553109;28;20031;-61
2023/07/13 04:17:18;;;;;;;1.02;0.55;;;;;;;24.56;40.48;100494.16;4552575;28;20111;-60
2023/07/13 04:19:28;;;;;;;0.43;0.43;;;;;;;24.66;40.42;100510.72;4551816;28;20044;-61
2023/07/13 04:21:39;;;;;;;0.93;0.50;;;;;;;24.68;40.74;100514.91;4552657;28;20170;-61
2023/07/13 04:23:49;;;;;;;0.70;0.40;;;;;;;24.66;40.38;100510.72;4553327;28;20439;-61
2023/07/13 04:26:00;;;;;;;1.23;0.50;;;;;;;24.53;40.58;100487.09;4553709;28;20082;-61
2023/07/13 04:28:10;;;;;;;0.60;0.50;;;;;;;24.61;40.45;100503.25;4553846;28;21052;-61
2023/07/13 04:30:21;;;;;;;0.40;0.40;;;;;;;24.60;40.07;100506.53;4554626;28;20047;-61
2023/07/13 04:32:31;;;;;;;0.40;0.40;;;;;;;24.60;39.48;100507.38;4553637;28;20163;-61
2023/07/13 04:34:42;;;;;;;0.50;0.50;;;;;;;24.63;39.96;100518.13;4568963;27;20687;-61
2023/07/13 04:36:52;;;;;;;0.30;0.30;;;;;;;24.63;39.97;100518.13;4553730;28;20032;-61
2023/07/13 04:39:40;;;;;;;0.70;0.40;;;;;;;24.63;40.39;100515.25;4554522;27;20527;-61
2023/07/13 04:41:50;;;;;;;0.77;0.45;;;;;;;24.61;40.25;100517.69;4542663;28;20103;-61
2023/07/13 04:44:02;;;;;;;0.80;0.57;;;;;;;24.60;40.60;100516.03;4554129;28;20127;-61
2023/07/13 04:46:18;;;;;;;0.60;0.40;;;;;;;24.63;40.08;100518.13;4552993;28;20760;-61
2023/07/13 04:48:29;;;;;;;0.73;0.40;;;;;;;24.63;40.45;100517.28;4556130;28;20763;-61
2023/07/13 04:50:39;;;;;;;0.73;0.50;;;;;;;24.64;40.22;100519.78;4553626;28;20036;-61
2023/07/13 04:52:51;;;;;;;0.60;0.32;;;;;;;24.64;40.57;100516.88;4557411;28;20032;-61
2023/07/13 04:55:01;;;;;;;0.93;0.65;;;;;;;24.63;40.26;100526.78;4557465;28;20041;-61
2023/07/13 04:57:11;;;;;;;0.38;0.20;;;;;;;24.58;40.12;100506.94;4554444;28;20858;-62
2023/07/13 04:59:22;;;;;;;1.42;0.52;;;;;;;24.62;40.71;100518.53;4556791;28;20063;-61
2023/07/13 05:01:32;;;;;;;1.02;0.40;;;;;;;24.59;40.02;100519.31;4557274;28;20115;-61
2023/07/13 05:03:42;;;;;;;1.33;0.45;;;;;;;24.63;40.46;100529.66;4531598;28;20033;-61
2023/07/13 05:06:02;;;;;;;0.50;0.40;;;;;;;24.58;40.79;100521.38;4557085;28;20045;-61
2023/07/13 05:08:13;;;;;;;0.52;0.40;;;;;;;24.59;40.82;100528.78;4557321;28;20047;-61
2023/07/13 05:10:23;;;;;;;1.08;0.50;;;;;;;24.60;40.10;100533.34;4557380;28;20040;-62
2023/07/13 05:12:34;;;;;;;0.70;0.50;;;;;;;24.59;40.47;100537.44;4556839;28;20040;-61
2023/07/13 05:14:44;;;;;;;0.40;0.40;;;;;;;24.59;40.39;100534.56;4556923;27;20147;-61
2023/07/13 05:16:57;;;;;;;1.10;0.40;;;;;;;24.60;40.14;100533.34;4558011;28;20052;-61
2023/07/13 05:19:08;;;;;;;0.30;0.30;;;;;;;24.62;40.28;100545.34;4556404;28;20123;-61
2023/07/13 05:21:19;;;;;;;0.70;0.40;;;;;;;24.54;40.11;100537.84;4556808;28;20033;-61
2023/07/13 05:23:30;;;;;;;0.77;0.40;;;;;;;24.60;40.26;100544.91;4553969;28;20032;-61
2023/07/13 05:25:41;;;;;;;1.00;0.40;;;;;;;24.58;39.94;100544.47;4555401;28;20040;-61
2023/07/13 05:27:52;;;;;;;1.05;0.40;;;;;;;24.55;40.37;100539.47;4557605;28;20700;-61
2023/07/13 05:30:03;;;;;;;1.58;0.50;;;;;;;24.57;40.45;100545.69;4558346;28;20040;-63
2023/07/13 05:32:14;;;;;;;0.82;0.40;;;;;;;24.55;40.56;100548.13;4557629;28;20094;-61
2023/07/13 05:34:24;;;;;;;1.42;0.50;;;;;;;24.44;39.90;100544.31;4556183;27;20095;-61
2023/07/13 05:36:35;;;;;;;0.35;0.35;;;;;;;24.33;40.72;100540.47;4556347;28;20476;-63
2023/07/13 05:38:45;;;;;;;0.30;0.22;;;;;;;24.31;41.03;100557.31;4554816;28;20181;-61
2023/07/13 05:40:57;;;;;;;0.50;0.40;;;;;;;24.22;41.04;100553.94;4555295;28;20036;-61
2023/07/13 05:43:07;;;;;;;0.70;0.30;;;;;;;24.08;41.09;100545.09;4555640;28;20043;-61
2023/07/13 05:45:18;;;;;;;1.13;0.60;;;;;;;24.04;41.46;100552.84;4555941;28;20504;-61
2023/07/13 05:47:28;;;;;;;0.50;0.40;;;;;;;23.94;41.75;100553.53;4556215;28;20079;-61
2023/07/13 05:49:38;;;;;;;0.43;0.43;;;;;;;23.81;42.10;100545.50;4556132;28;20036;-61
2023/07/13 05:51:49;;;;;;;1.02;0.40;;;;;;;23.78;41.63;100549.16;4556665;28;20040;-61
2023/07/13 05:53:59;;;;;;;1.15;0.40;;;;;;;23.77;42.20;100542.56;4554928;28;20098;-61
2023/07/13 05:56:10;;;;;;;0.70;0.40;;;;;;;23.75;42.12;100556.56;4556083;28;20167;-61
2023/07/13 05:58:21;;;;;;;0.40;0.40;;;;;;;23.69;42.37;100558.09;4556120;28;20220;-61
2023/07/13 06:00:41;;;;;;;1.17;0.50;;;;;;;23.63;42.89;100571.19;4554825;28;20043;-60
2023/07/13 06:02:51;;;;;;;0.40;0.40;;;;;;;23.59;42.91;100564.56;4554210;28;20101;-60
2023/07/13 06:05:02;;;;;;;0.30;0.30;;;;;;;23.58;42.87;100565.75;4555668;28;20167;-60
2023/07/13 06:07:12;;;;;;;0.85;0.50;;;;;;;23.60;42.29;100574.84;4556093;28;20051;-61
2023/07/13 06:09:23;;;;;;;1.52;0.43;;;;;;;23.58;42.91;100565.75;4554856;28;20369;-61
2023/07/13 06:11:34;;;;;;;0.82;0.50;;;;;;;23.67;42.64;100574.13;4554317;28;20028;-61
2023/07/13 06:13:45;;;;;;;0.73;0.45;;;;;;;23.63;42.73;100574.06;4553873;28;20246;-60
2023/07/13 06:15:55;;;;;;;0.77;0.40;;;;;;;23.63;43.67;100576.13;4555974;28;20043;-60
2023/07/13 06:18:06;;;;;;;1.63;0.47;;;;;;;23.55;43.01;100569.41;4556526;28;20489;-60
2023/07/13 06:20:16;;;;;;;0.73;0.40;;;;;;;23.50;43.12;100575.50;4556324;28;20387;-60
2023/07/13 06:50:39;;;;;;;0.77;0.40;;;;;;;23.28;44.32;100587.91;4555502;28;20090;-61
2023/07/13 07:27:40;;;;;;;0.88;0.50;;;;;;;23.03;45.78;100598.13;4553635;28;20729;-61
2023/07/13 08:17:39;;;;;;;0.85;0.60;;;;;;;23.08;46.88;100615.94;4552485;28;20048;-61
2023/07/13 08:23:39;;;;;;;1.35;0.70;;;;;;;23.06;46.97;100603.94;4553227;28;20128;-61
2023/07/13 08:26:39;;;;;;;0.82;0.52;;;;;;;23.06;47.28;100620.38;4554426;28;20878;-62
2023/07/13 08:29:40;;;;;;;0.98;0.65;;;;;;;23.06;46.67;100614.63;4556557;28;20036;-62
2023/07/13 08:32:40;;;;;;;1.10;0.68;;;;;;;23.05;46.54;100627.38;4543803;28;20114;-62
2023/07/13 08:59:38;;;;;;;1.67;0.68;;;;;;;23.23;46.42;100603.44;4556121;28;20098;-60
2023/07/13 09:02:39;;;;;;;1.30;0.82;;;;;;;23.25;46.55;100603.91;4556785;28;20045;-60
2023/07/13 09:53:39;;;;;;;0.57;0.50;;;;;;;23.57;44.48;100608.16;4554266;28;20895;-62
2023/07/13 09:56:39;;;;;;;1.08;0.50;;;;;;;23.58;45.28;100609.81;4557003;28;20135;-62
2023/07/13 09:59:39;;;;;;;1.08;0.52;;;;;;;23.60;45.55;100606.53;4555074;28;20048;-62
2023/07/13 10:02:41;;;;;;;0.70;0.60;;;;;;;23.60;45.27;100616.03;4553812;28;20049;-62
2023/07/13 10:18:46;;;;;;;0.80;0.50;;;;;;;23.54;44.92;100603.19;4555028;28;20041;-62
2023/07/13 10:21:18;;;;;;;1.40;0.50;;;;;;;23.65;44.29;100620.63;4555450;28;20039;-62
2023/07/13 10:23:32;;;;;;;0.80;0.70;;;;;;;23.66;44.29;100610.75;4555942;28;20113;-62
2023/07/13 10:25:44;;;;;;;1.38;0.60;;;;;;;23.67;44.14;100630.53;4555358;28;20111;-62
2023/07/13 10:28:05;;;;;;;0.77;0.52;;;;;;;23.64;44.55;100613.22;4555778;28;20041;-62
2023/07/13 10:30:28;;;;;;;0.75;0.70;;;;;;;23.67;44.19;100621.88;4556371;28;20877;-61
2023/07/13 10:32:38;;;;;;;1.15;0.50;;;;;;;23.66;44.19;100625.16;4556755;28;20028;-62
2023/07/13 10:34:52;;;;;;;1.33;0.63;;;;;;;23.66;44.16;100622.28;4555918;28;20602;-62
2023/07/13 10:37:04;;;;;;;0.60;0.40;;;;;;;23.65;44.13;100626.38;4554331;28;20114;-62
2023/07/13 10:56:38;;;;;;;1.10;0.60;;;;;;;23.73;45.53;100622.41;4556240;28;20053;-62
2023/07/13 10:59:41;;;;;;;0.50;0.50;;;;;;;23.73;44.87;100622.41;4556197;28;20029;-62
2023/07/13 11:40:41;;;;;;;1.38;0.60;;;;;;;23.79;43.37;100622.88;4553621;28;20043;-61
2023/07/13 11:43:38;;;;;;;0.65;0.40;;;;;;;23.78;43.12;100622.06;4553497;28;20110;-61
2023/07/13 11:45:49;;;;;;;0.68;0.60;;;;;;;23.77;43.17;100605.97;4554825;28;20036;-62
2023/07/13 11:48:01;;;;;;;0.85;0.60;;;;;;;23.77;43.49;100608.06;4553846;28;20078;-61
2023/07/13 11:50:23;;;;;;;0.80;0.70;;;;;;;23.79;43.71;100609.31;4554533;28;20590;-62
2023/07/13 11:52:36;;;;;;;0.73;0.60;;;;;;;23.79;42.80;100611.34;4552771;28;20583;-62
2023/07/13 11:54:55;;;;;;;0.40;0.40;;;;;;;23.74;42.48;100597.31;4553893;28;20284;-62
2023/07/13 11:57:23;;;;;;;0.52;0.40;;;;;;;23.78;44.02;100607.66;4554513;28;20036;-62
2023/07/13 11:59:39;;;;;;;0.70;0.40;;;;;;;23.78;42.84;100616.31;4553932;28;20040;-61
2023/07/13 12:01:53;;;;;;;0.85;0.60;;;;;;;23.82;43.22;100617.19;4554228;28;20067;-62
2023/07/13 12:04:06;;;;;;;0.85;0.65;;;;;;;23.77;42.35;100605.97;4554840;28;20045;-62
2023/07/13 12:06:27;;;;;;;0.90;0.60;;;;;;;23.80;42.41;100616.72;4554550;28;20277;-62
2023/07/13 12:08:40;;;;;;;0.80;0.63;;;;;;;23.82;42.33;100625.81;4554236;28;20547;-62
2023/07/13 12:10:57;;;;;;;1.30;0.60;;;;;;;23.80;41.92;100628.25;4554864;28;20043;-62
2023/07/13 12:13:09;;;;;;;1.42;0.70;;;;;;;23.80;42.42;100627.44;4553437;28;20629;-61
2023/07/13 12:15:22;;;;;;;0.60;0.50;;;;;;;23.80;42.70;100616.72;4552303;28;20041;-63
2023/07/13 12:17:34;;;;;;;1.85;0.70;;;;;;;23.81;42.69;100623.34;4553129;28;20024;-62
2023/07/13 12:19:46;;;;;;;0.60;0.60;;;;;;;23.76;42.60;100615.84;4553750;28;20081;-62
2023/07/13 12:21:59;;;;;;;0.80;0.70;;;;;;;23.74;42.81;100612.53;4553869;28;20040;-62
2023/07/13 12:24:20;;;;;;;0.70;0.63;;;;;;;23.82;43.06;100619.25;4553810;28;20035;-62
2023/07/13 12:26:32;;;;;;;1.00;0.70;;;;;;;23.85;43.84;100622.16;4552300;28;20135;-62
2023/07/13 12:28:52;;;;;;;0.73;0.57;;;;;;;23.85;43.03;100630.00;4553389;28;20089;-62
2023/07/13 12:31:26;;;;;;;0.73;0.52;;;;;;;23.85;43.55;100630.00;4552893;28;20072;-64
2023/07/13 12:33:41;;;;;;;0.90;0.70;;;;;;;23.86;42.82;100638.25;4537488;28;21514;-64
2023/07/13 12:35:53;;;;;;;0.63;0.57;;;;;;;23.83;42.77;100633.28;4533452;28;20033;-64
2023/07/13 12:38:41;;;;;;;0.90;0.70;;;;;;;23.75;42.63;100613.38;4551589;28;20039;-64
2023/07/13 12:40:53;;;;;;;1.08;0.65;;;;;;;23.82;42.98;100630.78;4533613;28;20627;-61
2023/07/13 12:43:13;;;;;;;0.70;0.70;;;;;;;23.83;42.99;100633.28;4568534;27;21602;-64
2023/07/13 12:45:35;;;;;;;0.60;0.60;;;;;;;23.86;43.88;100625.88;4568640;27;20561;-64
2023/07/13 12:48:13;;;;;;;1.27;0.60;;;;;;;23.84;43.15;100634.09;4535229;28;20091;-62
2023/07/13 12:50:31;;;;;;;;;;;;;;;23.89;43.27;100639.53;4530299;28;21296;-62
2023/07/13 12:52:59;;;;;;;1.23;0.90;;;;;;;23.85;43.51;100627.94;4537664;28;19990;-63
2023/07/13 12:55:32;;;;;;;1.67;0.70;;;;;;;23.88;43.57;100635.78;4534743;28;20056;-64
2023/07/13 12:57:48;;;;;;;0.93;0.70;;;;;;;23.56;43.64;100582.63;4534512;28;20126;-63
2023/07/13 13:00:19;;;;;;;0.52;0.50;;;;;;;23.82;44.55;100625.81;4537897;28;20041;-63
2023/07/13 13:02:34;;;;;;;1.00;0.70;;;;;;;23.82;44.45;100622.13;4568632;27;20144;-62
2023/07/13 13:04:46;;;;;;;0.95;0.68;;;;;;;23.83;44.33;100615.97;4536481;28;20036;-64
2023/07/13 13:07:09;;;;;;;0.85;0.60;;;;;;;23.90;44.20;100627.59;4551561;28;20126;-63
2023/07/13 13:09:20;;;;;;;1.30;0.70;;;;;;;23.91;44.54;100628.44;4537006;28;20032;-64
2023/07/13 13:11:32;;;;;;;0.60;0.60;;;;;;;23.91;45.15;100623.50;4550522;28;20119;-62
2023/07/13 13:13:43;;;;;;;0.85;0.57;;;;;;;23.91;44.73;100623.50;4553492;28;20694;-60
2023/07/13 13:15:57;;;;;;;1.65;0.68;;;;;;;23.93;43.82;100631.78;4535253;28;20243;-62
2023/07/13 13:18:38;;;;;;;0.50;0.50;;;;;;;23.93;43.33;100635.47;4557118;28;20114;-62
2023/07/13 13:20:50;;;;;;;1.10;0.52;;;;;;;23.94;43.47;100622.72;4554121;28;20043;-62
2023/07/13 13:23:01;;;;;;;0.68;0.50;;;;;;;23.92;43.57;100610.75;4554922;28;20097;-62
2023/07/13 13:25:13;;;;;;;0.93;0.70;;;;;;;23.91;43.68;100626.41;4547591;28;20053;-60
2023/07/13 13:27:23;;;;;;;0.52;0.47;;;;;;;23.94;43.83;100628.50;4537545;28;20546;-61
2023/07/13 13:29:38;;;;;;;1.42;0.60;;;;;;;23.95;43.54;100633.03;4555566;28;20112;-61
2023/07/13 13:31:49;;;;;;;1.10;0.70;;;;;;;23.96;43.88;100626.03;4553945;28;20033;-61
2023/07/13 13:34:00;;;;;;;0.80;0.70;;;;;;;23.95;44.83;100624.38;4554847;28;20029;-61
2023/07/13 13:36:22;;;;;;;0.50;0.50;;;;;;;23.96;43.70;100631.78;4557711;28;20032;-61
2023/07/13 13:38:33;;;;;;;0.50;0.50;;;;;;;23.93;42.61;100626.81;4554436;28;20040;-62
2023/07/13 13:40:45;;;;;;;1.05;0.60;;;;;;;23.97;42.63;100636.41;4556598;28;20041;-61
2023/07/13 13:42:56;;;;;;;1.50;0.60;;;;;;;23.97;43.22;100632.66;4557222;28;20680;-61
2023/07/13 13:45:17;;;;;;;0.90;0.60;;;;;;;23.96;43.14;100622.34;4556159;28;20087;-61
2023/07/13 13:47:32;;;;;;;0.50;0.50;;;;;;;23.96;42.54;100628.91;4557214;28;20040;-61
2023/07/13 13:49:43;;;;;;;0.82;0.40;;;;;;;23.97;42.00;100629.78;4555401;28;20048;-61
2023/07/13 13:51:54;;;;;;;0.70;0.55;;;;;;;23.97;42.08;100632.66;4555485;28;20864;-61
2023/07/13 13:54:09;;;;;;;0.88;0.63;;;;;;;23.96;42.01;100619.47;4555133;28;20040;-62
2023/07/13 13:56:20;;;;;;;1.25;0.68;;;;;;;23.97;41.99;100632.66;4555599;28;20036;-61
2023/07/13 13:58:30;;;;;;;0.95;0.60;;;;;;;23.97;42.08;100633.50;4557061;28;20084;-61
2023/07/13 14:00:45;;;;;;;0.77;0.50;;;;;;;23.94;41.42;100625.63;4555800;28;20037;-61
2023/07/13 14:02:57;;;;;;;0.55;0.50;;;;;;;23.84;41.79;100599.50;4556227;28;20044;-61
2023/07/13 14:05:13;;;;;;;0.80;0.68;;;;;;;23.97;41.53;100629.78;4556220;28;20534;-61
2023/07/13 14:07:23;;;;;;;0.67;0.50;;;;;;;23.96;41.29;100626.03;4557088;28;20055;-61
2023/07/13 14:09:34;;;;;;;0.80;0.50;;;;;;;23.98;40.89;100620.75;4554202;28;20035;-61
2023/07/13 14:11:46;;;;;;;0.70;0.60;;;;;;;23.98;39.78;100628.56;4557446;28;20043;-61
2023/07/13 14:13:59;;;;;;;0.65;0.60;;;;;;;23.99;40.09;100624.47;4556083;28;20033;-61
2023/07/13 14:16:20;;;;;;;1.02;0.55;;;;;;;23.99;41.46;100631.03;4555425;28;20591;-61
2023/07/13 14:18:31;;;;;;;0.60;0.60;;;;;;;23.96;41.73;100631.78;4556334;27;20025;-61
2023/07/13 14:20:41;;;;;;;0.70;0.55;;;;;;;23.99;41.18;100636.81;4555544;28;20045;-61
2023/07/13 14:22:53;;;;;;;1.30;0.50;;;;;;;23.97;41.08;100626.91;4554768;28;20063;-61
2023/07/13 14:25:03;;;;;;;0.50;0.50;;;;;;;23.99;40.77;100618.69;4556328;28;20515;-62
2023/07/13 14:27:14;;;;;;;0.73;0.50;;;;;;;23.97;40.69;100627.75;4557745;28;20036;-61
2023/07/13 14:29:25;;;;;;;1.20;0.60;;;;;;;23.97;40.58;100621.97;4557319;27;20029;-61
2023/07/13 14:31:35;;;;;;;1.08;0.70;;;;;;;23.94;40.09;100622.72;4555813;28;20036;-60
2023/07/13 14:33:47;;;;;;;0.93;0.60;;;;;;;23.97;39.98;100626.91;4556949;28;20028;-60
2023/07/13 14:35:58;;;;;;;0.60;0.60;;;;;;;23.99;39.99;100636.81;4555525;28;20067;-60
2023/07/13 14:38:15;;;;;;;1.25;0.60;;;;;;;24.00;40.16;100634.78;4554689;28;20151;-64
2023/07/13 14:40:30;;;;;;;0.88;0.65;;;;;;;24.01;39.67;100640.16;4556251;28;20099;-65
2023/07/13 14:42:40;;;;;;;1.38;0.65;;;;;;;24.00;39.45;100643.41;4556468;28;20028;-64
2023/07/13 14:44:52;;;;;;;0.88;0.70;;;;;;;24.00;39.79;100698.22;4556412;28;20133;-63
2023/07/13 14:47:05;;;;;;;2.25;0.80;;;;;;;24.01;39.84;100709.34;4555031;28;20151;-64